Time;durP1;ratioP1;P1;durP2;ratioP2;P2;SDS_P1;SDS_P2;PMS_P1;PMS_P2;Temp;Humidity;BMP_temperature;BMP_pressure;BME280_temperature;BME280_humidity;BME280_pressure;Samples;Min_cycle;Max_cycle;Signal;HPM_P1;HPM_P2
2021/04/01 00:13:27;;;;;;;22.07;15.35;;;;;;;19.17;44.96;100230.73;2567492;75;30882;-84
2021/04/01 00:16:49;;;;;;;22.22;16.97;;;;;;;19.09;44.97;100228.62;2490556;78;25623;-83
2021/04/01 00:20:20;;;;;;;26.73;15.88;;;;;;;19.08;45.00;100226.87;2485075;79;25622;-84
2021/04/01 00:24:17;;;;;;;29.60;16.10;;;;;;;19.07;45.04;100218.09;2405453;79;25940;-83
2021/04/01 00:28:22;;;;;;;;;;;;;;;;;;;;;
2021/04/01 00:32:22;;;;;;;22.42;15.72;;;;;;;19.09;45.09;100206.16;2586731;74;31424;-74
2021/04/01 00:36:01;;;;;;;21.93;15.60;;;;;;;19.02;45.13;100203.18;2447136;79;25458;-82
2021/04/01 00:42:57;;;;;;;20.32;15.78;;;;;;;18.97;45.20;100201.06;2140970;90;25760;-78
2021/04/01 01:05:27;;;;;;;23.73;16.45;;;;;;;18.75;45.43;100171.41;1959645;95;26032;-75
2021/04/01 01:14:11;;;;;;;21.73;16.17;;;;;;;18.63;45.47;100153.94;2620207;74;25485;-74
2021/04/01 01:18:00;;;;;;;22.52;15.45;;;;;;;18.59;45.60;100150.89;2582356;75;25420;-84
2021/04/01 01:21:49;;;;;;;21.70;15.55;;;;;;;18.56;45.67;100150.50;2596899;75;25890;-77
2021/04/01 01:25:30;;;;;;;22.32;16.45;;;;;;;18.51;45.72;100144.39;2578328;75;25414;-83
2021/04/01 01:34:13;;;;;;;20.85;15.18;;;;;;;18.49;45.71;100134.74;2251931;86;25618;-87
2021/04/01 01:38:57;;;;;;;23.20;15.90;;;;;;;18.46;45.80;100124.22;2553364;77;30934;-81
2021/04/01 01:42:26;;;;;;;21.27;16.57;;;;;;;18.39;45.88;100127.38;2544219;77;25851;-86
2021/04/01 01:45:55;;;;;;;22.93;15.53;;;;;;;18.35;45.93;100123.91;2542212;77;25307;-76
2021/04/01 01:49:20;;;;;;;25.65;16.02;;;;;;;18.34;46.00;100111.61;2542657;77;25684;-79
2021/04/01 01:52:46;;;;;;;19.95;16.75;;;;;;;18.31;45.96;100114.28;2542573;77;25766;-73
2021/04/01 01:56:22;;;;;;;26.60;15.10;;;;;;;18.27;46.10;100104.66;2541589;77;25630;-86
2021/04/01 01:59:57;;;;;;;25.57;16.93;;;;;;;18.24;46.15;100095.92;2479210;77;25694;-76
2021/04/01 02:03:28;;;;;;;26.02;15.95;;;;;;;18.22;46.16;100093.73;2509887;77;25598;-78
2021/04/01 02:06:50;;;;;;;19.10;15.63;;;;;;;18.19;46.25;100090.70;2503519;78;25360;-75
2021/04/01 02:10:34;;;;;;;21.15;16.00;;;;;;;18.20;46.32;100090.26;2549691;77;25619;-84
2021/04/01 02:14:40;;;;;;;;;;;;;;;;;;;;;
2021/04/01 02:18:41;;;;;;;25.30;16.75;;;;;;;18.11;46.23;100092.09;2391560;80;25411;-77
2021/04/01 02:38:34;;;;;;;23.98;16.70;;;;;;;18.17;46.57;100063.00;2605224;76;30864;-78
2021/04/01 02:42:47;;;;;;;22.90;16.65;;;;;;;18.11;46.50;100063.08;2564774;77;25475;-85
2021/04/01 02:46:20;;;;;;;23.22;16.00;;;;;;;18.06;46.59;100058.77;2564877;77;25724;-73
2021/04/01 02:50:21;;;;;;;23.47;16.62;;;;;;;17.97;46.64;100049.64;2466998;80;25548;-73
2021/04/01 02:53:52;;;;;;;25.97;17.23;;;;;;;17.97;46.64;100049.64;2468338;80;25645;-86
2021/04/01 02:57:18;;;;;;;27.52;16.90;;;;;;;17.94;46.70;100047.91;2468314;80;25167;-78
2021/04/01 03:00:47;;;;;;;25.17;17.73;;;;;;;17.90;46.73;100043.56;2468643;80;25529;-75
2021/04/01 03:04:11;;;;;;;20.37;16.15;;;;;;;17.80;46.70;100032.70;2435249;79;25634;-80
2021/04/01 03:07:44;;;;;;;25.05;17.52;;;;;;;17.79;47.19;100042.83;2475563;78;25715;-82
2021/04/01 03:11:12;;;;;;;23.73;18.00;;;;;;;17.77;46.94;100040.19;2468723;80;25653;-77
2021/04/01 03:14:36;;;;;;;22.27;17.73;;;;;;;17.66;46.95;100019.64;2468181;80;25600;-89
2021/04/01 03:17:58;;;;;;;21.80;17.12;;;;;;;17.70;46.98;100040.67;2513244;78;25645;-87
2021/04/01 03:21:36;;;;;;;24.57;17.17;;;;;;;17.67;46.96;100033.23;2468776;80;25621;-73
2021/04/01 03:25:01;;;;;;;25.45;17.45;;;;;;;17.67;46.96;100033.23;2497647;78;25574;-83
2021/04/01 03:28:40;;;;;;;30.62;18.02;;;;;;;17.60;47.05;100015.75;2471747;80;25508;-80
2021/04/01 03:32:09;;;;;;;26.35;17.62;;;;;;;17.60;47.05;100015.75;2423711;81;25653;-81
2021/04/01 03:35:35;;;;;;;27.87;17.35;;;;;;;17.55;47.32;100014.49;2472738;80;25607;-86
2021/04/01 03:39:05;;;;;;;30.45;18.42;;;;;;;17.42;47.43;100009.78;2472614;80;25665;-80
2021/04/01 03:42:57;;;;;;;23.80;17.62;;;;;;;17.42;47.43;100009.78;2305335;85;25643;-77
2021/04/01 03:46:41;;;;;;;28.98;18.62;;;;;;;17.34;47.53;100004.15;2210576;88;25863;-86
2021/04/01 03:50:30;;;;;;;;;;;;;;;;;;;;;
2021/04/01 03:54:13;;;;;;;28.95;18.12;;;;;;;17.23;47.90;99997.67;2616787;74;30875;-73
2021/04/01 03:57:45;;;;;;;27.25;18.82;;;;;;;17.13;47.89;99998.20;2508541;78;25615;-74
2021/04/01 04:11:41;;;;;;;33.20;19.70;;;;;;;17.06;48.18;99978.08;2512735;78;25823;-83
2021/04/01 04:15:15;;;;;;;31.87;19.75;;;;;;;17.06;48.29;99973.27;2512768;78;25665;-77
2021/04/01 04:18:37;;;;;;;31.17;17.92;;;;;;;17.06;48.29;99974.58;2512975;78;25785;-74
2021/04/01 04:22:03;;;;;;;27.48;20.02;;;;;;;17.04;48.26;99969.76;2512897;78;25767;-82
2021/04/01 04:25:33;;;;;;;24.77;19.98;;;;;;;16.99;48.32;99968.50;2496421;78;25592;-73
2021/04/01 04:28:57;;;;;;;33.38;19.77;;;;;;;16.95;48.38;99972.05;2468034;80;25695;-85
2021/04/01 04:32:41;;;;;;;28.85;18.90;;;;;;;16.89;48.48;99970.78;2468477;80;25734;-80
2021/04/01 04:36:19;;;;;;;31.30;19.23;;;;;;;16.87;48.58;99968.14;2476253;77;25680;-74
2021/04/01 04:39:51;;;;;;;26.50;18.87;;;;;;;16.85;48.61;99955.91;2564713;77;25641;-83
2021/04/01 04:43:12;;;;;;;30.37;18.75;;;;;;;16.87;48.70;99958.93;2564868;77;25481;-87
2021/04/01 04:46:59;;;;;;;29.92;18.37;;;;;;;16.87;48.67;99958.93;2556011;77;25707;-74
2021/04/01 04:50:26;;;;;;;31.27;19.70;;;;;;;16.88;48.76;99947.53;2564511;77;25700;-75
2021/04/01 04:53:51;;;;;;;25.00;18.35;;;;;;;16.90;48.74;99943.56;2562871;77;25920;-77
2021/04/01 04:57:25;;;;;;;30.50;19.57;;;;;;;16.91;48.75;99946.20;2565647;77;25692;-79
2021/04/01 05:07:56;;;;;;;26.15;17.70;;;;;;;17.13;48.63;99945.52;2563397;77;25727;-83
2021/04/01 05:11:19;;;;;;;30.50;19.27;;;;;;;17.23;48.50;99939.72;2562993;77;25303;-76
2021/04/01 05:15:09;;;;;;;28.90;18.62;;;;;;;17.26;48.81;99933.55;2560979;77;25720;-85
2021/04/01 05:18:32;;;;;;;33.85;20.10;;;;;;;17.26;48.81;99933.55;2563234;77;25405;-92
2021/04/01 05:25:28;;;;;;;30.10;19.90;;;;;;;17.41;48.41;99927.67;2563682;75;25697;-75
2021/04/01 06:05:23;;;;;;;29.07;19.57;;;;;;;18.17;47.52;99891.52;2484880;79;30748;-88
2021/04/01 06:12:50;;;;;;;31.77;19.02;;;;;;;18.45;47.21;99887.56;2605948;76;30762;-89
2021/04/01 06:21:41;;;;;;;34.05;20.05;;;;;;;18.76;46.88;99896.73;2605787;76;30697;-85
2021/04/01 06:25:24;;;;;;;31.93;19.50;;;;;;;18.91;46.58;99900.02;2503634;78;25569;-78
2021/04/01 06:29:10;;;;;;;29.18;20.43;;;;;;;19.06;46.34;99903.23;2499149;77;25504;-82
2021/04/01 06:33:10;;;;;;;26.52;18.95;;;;;;;19.26;46.18;99894.92;2468889;79;25664;-87
2021/04/01 06:37:07;;;;;;;;;;;;;;;;;;;;;
2021/04/01 06:52:02;;;;;;;36.70;20.20;;;;;;;20.25;44.77;99893.26;2418242;80;30727;-91
2021/04/01 06:56:39;;;;;;;;;;;;;;;;;;;;;
2021/04/01 07:04:29;;;;;;;38.45;19.07;;;;;;;20.80;44.20;99883.09;2516244;78;25602;-90
2021/04/01 07:08:08;;;;;;;31.23;18.65;;;;;;;20.98;44.02;99881.25;2510256;78;25982;-76
2021/04/01 07:12:09;;;;;;;31.68;16.80;;;;;;;21.10;43.90;99882.72;2515837;78;25597;-77
2021/04/01 07:16:15;;;;;;;;;;;;;;;;;;;;;
2021/04/01 07:20:48;;;;;;;25.25;16.70;;;;;;;21.56;43.34;99880.56;2494320;78;25704;-89
2021/04/01 07:47:09;;;;;;;19.05;12.85;;;;;;;29.54;33.88;99866.66;2506503;79;25519;-86
2021/04/01 07:50:41;;;;;;;19.57;12.60;;;;;;;30.30;33.49;99868.06;2496943;79;26248;-82
2021/04/01 07:59:05;;;;;;;17.25;11.12;;;;;;;32.74;30.93;99872.27;2485060;77;25712;-81
2021/04/01 08:06:32;;;;;;;13.53;9.85;;;;;;;35.18;28.63;99879.83;2294587;84;25808;-81
2021/04/01 08:10:18;;;;;;;15.38;9.80;;;;;;;36.28;26.88;99864.18;2615956;74;25548;-80
2021/04/01 08:14:23;;;;;;;12.47;8.85;;;;;;;36.85;26.58;99870.13;2414837;81;25403;-75
2021/04/01 08:36:47;;;;;;;9.78;8.00;;;;;;;38.97;24.75;99864.22;2374930;81;25378;-82
2021/04/01 08:40:48;;;;;;;10.45;7.47;;;;;;;40.14;24.08;99859.52;2551110;77;27927;-79
2021/04/01 08:45:01;;;;;;;6.90;6.08;;;;;;;40.93;23.66;99859.94;2440203;80;25737;-81
2021/04/01 08:49:42;;;;;;;;;;;;;;;;;;;;;
2021/04/01 08:53:59;;;;;;;18.40;11.65;;;;;;;42.47;21.09;99850.80;2505465;77;25813;-80
2021/04/01 08:58:10;;;;;;;14.50;12.40;;;;;;;41.79;19.48;99843.33;2367809;80;26415;-81
2021/04/01 09:02:02;;;;;;;;;;;;;;;;;;;;;
2021/04/01 09:06:12;;;;;;;20.00;12.30;;;;;;;39.75;19.14;99830.06;2550557;76;27872;-82
2021/04/01 09:13:54;;;;;;;21.52;13.15;;;;;;;38.75;19.48;99800.17;2291947;85;25406;-78
2021/04/01 09:17:36;;;;;;;16.52;12.58;;;;;;;38.75;19.48;99800.17;2313397;84;25785;-83
2021/04/01 09:22:11;;;;;;;;;;;;;;;;;;;;;
2021/04/01 09:25:49;;;;;;;16.05;11.20;;;;;;;38.41;19.19;99799.58;2470922;79;25709;-81
2021/04/01 09:29:23;;;;;;;16.75;11.57;;;;;;;38.40;18.98;99799.20;2530042;75;25717;-82
2021/04/01 09:33:31;;;;;;;12.37;10.65;;;;;;;38.33;19.03;99797.25;2448003;79;25726;-74
2021/04/01 09:37:28;;;;;;;20.77;10.98;;;;;;;37.51;18.73;99792.30;2341600;82;25695;-76
2021/04/01 09:41:44;;;;;;;21.80;11.18;;;;;;;37.20;19.31;99780.84;2172062;89;25683;-73
2021/04/01 09:46:21;;;;;;;18.05;11.90;;;;;;;37.21;19.55;99777.09;2505860;79;25486;-83
2021/04/01 09:54:48;;;;;;;;;;;;;;;;;;;;;
2021/04/01 09:59:07;;;;;;;13.00;11.12;;;;;;;38.17;18.58;99763.44;2599227;75;27505;-78
2021/04/01 10:07:37;;;;;;;;;;;;;;;;;;;;;
2021/04/01 10:11:53;;;;;;;17.62;11.40;;;;;;;38.38;18.15;99752.23;2512856;77;25372;-73
2021/04/01 10:15:29;;;;;;;13.28;10.53;;;;;;;38.52;18.06;99760.34;2473552;78;25598;-79
2021/04/01 10:18:57;;;;;;;22.37;11.00;;;;;;;38.54;18.20;99751.48;2467889;80;25682;-82
2021/04/01 10:22:41;;;;;;;15.60;10.93;;;;;;;38.92;18.17;99748.87;2448934;80;25633;-81
2021/04/01 10:31:52;;;;;;;14.38;10.32;;;;;;;39.21;17.68;99738.09;2317147;83;26255;-76
2021/04/01 10:36:05;;;;;;;;;;;;;;;;;;;;;
2021/04/01 10:40:19;;;;;;;18.60;11.53;;;;;;;38.58;17.60;99721.58;2540502;76;28277;-77
2021/04/01 10:44:03;;;;;;;21.73;10.70;;;;;;;38.10;17.95;99714.70;2410241;80;25819;-77
2021/04/01 10:48:00;;;;;;;11.28;8.78;;;;;;;38.05;18.24;99712.97;2420284;79;25539;-80
2021/04/01 10:52:06;;;;;;;14.95;11.35;;;;;;;38.21;18.91;99705.45;2308636;84;25964;-81
2021/04/01 10:55:34;;;;;;;17.95;10.25;;;;;;;37.24;18.80;99689.31;2311118;84;25429;-76
2021/04/01 10:59:27;;;;;;;18.07;10.80;;;;;;;37.12;19.34;99686.44;2324998;82;25873;-78
2021/04/01 11:14:43;;;;;;;;;;;;;;;;;;;;;
2021/04/01 11:27:36;;;;;;;23.77;11.38;;;;;;;35.27;19.30;99650.55;2557323;77;25267;-81
2021/04/01 11:31:39;;;;;;;18.85;10.95;;;;;;;35.19;19.20;99662.56;2473041;78;25461;-79
2021/04/01 11:35:15;;;;;;;16.55;11.10;;;;;;;34.85;19.04;99653.88;2511645;78;25684;-77
2021/04/01 11:38:56;;;;;;;18.67;10.63;;;;;;;34.64;18.94;99646.68;2531239;78;25631;-78
2021/04/01 11:43:01;;;;;;;19.07;12.30;;;;;;;34.07;18.85;99639.42;2393108;81;25776;-78
2021/04/01 11:46:41;;;;;;;18.37;12.30;;;;;;;33.63;19.16;99648.59;2399485;82;25656;-81
2021/04/01 11:50:31;;;;;;;24.02;14.13;;;;;;;33.21;19.38;99635.43;2396846;82;25479;-82
2021/04/01 11:54:08;;;;;;;22.07;12.60;;;;;;;32.83;19.70;99633.50;2399993;82;25732;-74
2021/04/01 11:57:48;;;;;;;18.07;12.50;;;;;;;32.35;20.04;99622.93;2322826;83;25819;-76
2021/04/01 12:02:06;;;;;;;23.15;13.30;;;;;;;31.83;20.48;99626.98;2565483;77;25736;-73
2021/04/01 12:05:49;;;;;;;21.70;12.00;;;;;;;31.15;20.85;99613.67;2523386;78;25298;-78
2021/04/01 12:09:15;;;;;;;18.60;11.85;;;;;;;30.74;21.55;99612.61;2523183;78;25697;-81
2021/04/01 12:12:42;;;;;;;17.87;12.18;;;;;;;30.41;21.82;99608.70;2475001;78;26060;-77
2021/04/01 12:16:29;;;;;;;21.93;13.53;;;;;;;30.12;22.01;99608.02;2477371;78;25769;-78
2021/04/01 12:20:14;;;;;;;24.67;13.35;;;;;;;29.84;22.36;99608.59;2517128;78;25607;-78
2021/04/01 12:23:58;;;;;;;21.07;13.72;;;;;;;29.52;22.50;99597.79;2492104;78;25603;-77
2021/04/01 12:27:31;;;;;;;26.80;13.70;;;;;;;29.43;22.63;99592.58;2522412;78;25303;-72
2021/04/01 12:30:55;;;;;;;25.05;12.73;;;;;;;29.48;22.85;99597.63;2521658;78;26401;-77
2021/04/01 12:34:29;;;;;;;23.83;13.53;;;;;;;29.69;22.97;99590.82;2509262;78;26244;-77
2021/04/01 12:38:13;;;;;;;24.98;13.43;;;;;;;29.99;22.64;99587.84;2430277;80;25661;-78
2021/04/01 12:41:39;;;;;;;22.32;12.63;;;;;;;30.35;22.30;99575.52;2455394;79;25671;-76
2021/04/01 12:45:03;;;;;;;23.77;13.93;;;;;;;30.69;22.17;99571.25;2455134;79;25744;-80
2021/04/01 12:48:43;;;;;;;20.37;13.38;;;;;;;30.89;21.43;99573.86;2189706;87;25608;-75
2021/04/01 12:52:13;;;;;;;18.82;12.18;;;;;;;30.95;20.93;99564.45;2187709;89;25787;-76
2021/04/01 12:55:46;;;;;;;17.35;11.73;;;;;;;30.91;21.17;99560.28;2206115;89;25733;-72
2021/04/01 13:00:01;;;;;;;21.42;11.78;;;;;;;30.67;20.74;99554.84;2462414;78;27060;-75
2021/04/01 13:03:33;;;;;;;23.40;11.35;;;;;;;30.44;20.61;99555.16;2382676;81;25671;-76
2021/04/01 13:10:49;;;;;;;16.75;10.98;;;;;;;29.81;21.31;99542.13;2280103;85;25725;-72
2021/04/01 13:14:37;;;;;;;17.70;12.23;;;;;;;29.48;21.45;99543.43;2549367;76;25386;-73
2021/04/01 13:18:00;;;;;;;25.95;10.53;;;;;;;29.08;21.71;99540.73;2504170;77;25612;-74
2021/04/01 13:25:11;;;;;;;22.70;11.25;;;;;;;28.42;22.51;99534.77;2340049;84;25405;-76
2021/04/01 13:28:34;;;;;;;25.08;12.60;;;;;;;28.18;22.75;99532.64;2318645;84;25575;-76
2021/04/01 13:35:47;;;;;;;15.43;9.13;;;;;;;27.77;22.53;99522.65;2295569;83;25899;-77
2021/04/01 13:39:24;;;;;;;11.78;7.85;;;;;;;27.51;22.31;99528.23;2338191;81;25600;-76
2021/04/01 13:42:51;;;;;;;21.65;9.43;;;;;;;27.40;22.07;99515.95;2414794;80;25693;-73
2021/04/01 13:46:22;;;;;;;24.70;10.50;;;;;;;27.23;22.21;99513.42;2416631;80;25659;-74
2021/04/01 13:49:52;;;;;;;22.93;10.28;;;;;;;27.15;22.25;99502.31;2416964;81;25633;-76
2021/04/01 14:09:49;;;;;;;19.92;9.88;;;;;;;26.03;23.26;99496.08;2529405;76;25503;-80
2021/04/01 14:13:16;;;;;;;18.65;8.73;;;;;;;25.53;23.37;99512.08;2516590;78;25523;-79
2021/04/01 14:16:42;;;;;;;;;;;;;;;25.54;23.58;99508.45;2512583;78;26267;-79
2021/04/01 14:20:19;;;;;;;33.80;13.90;;;;;;;25.52;23.93;99525.04;2520117;77;25746;-79
2021/04/01 14:23:43;;;;;;;34.78;16.30;;;;;;;25.48;24.50;99531.45;2558970;77;25690;-74
2021/04/01 14:30:50;;;;;;;26.45;15.88;;;;;;;25.29;25.98;99567.56;2550479;76;25659;-74
2021/04/01 14:34:33;;;;;;;21.12;13.78;;;;;;;25.30;26.93;99554.13;2590488;76;25469;-74
2021/04/01 14:38:06;;;;;;;24.92;16.42;;;;;;;25.31;27.04;99561.66;2573628;75;25875;-75
2021/04/01 14:41:43;;;;;;;22.52;14.43;;;;;;;25.35;27.51;99564.59;2564506;76;25920;-74
2021/04/01 14:45:09;;;;;;;22.70;15.08;;;;;;;25.29;27.87;99545.74;2564175;76;25825;-75
2021/04/01 14:48:40;;;;;;;23.70;15.85;;;;;;;25.21;28.12;99550.58;2564903;76;25931;-77
2021/04/01 14:52:02;;;;;;;27.82;16.15;;;;;;;25.17;28.50;99545.87;2565422;77;25805;-78
2021/04/01 14:55:36;;;;;;;;;;;;;;;;;;;;;
2021/04/01 14:59:24;;;;;;;28.90;16.05;;;;;;;24.97;29.52;99542.85;2553142;77;25824;-73
2021/04/01 15:02:52;;;;;;;26.35;16.77;;;;;;;24.80;29.96;99540.59;2469447;78;25672;-79
2021/04/01 15:06:19;;;;;;;28.67;15.60;;;;;;;24.63;30.37;99546.72;2415701;78;25647;-73
2021/04/01 15:09:42;;;;;;;26.37;15.90;;;;;;;24.53;30.73;99552.09;2470495;78;25828;-78
2021/04/01 15:13:07;;;;;;;19.00;14.85;;;;;;;24.38;30.87;99547.00;2470075;80;25308;-80
2021/04/01 15:16:28;;;;;;;27.98;16.55;;;;;;;24.27;30.87;99546.16;2469745;79;25778;-78
2021/04/01 15:20:20;;;;;;;25.32;14.95;;;;;;;24.16;30.60;99539.11;2466060;79;25823;-78
2021/04/01 15:24:03;;;;;;;24.32;14.95;;;;;;;23.96;30.55;99535.58;2479040;78;25862;-77
2021/04/01 15:27:27;;;;;;;21.23;13.55;;;;;;;23.84;30.47;99538.78;2459293;79;25681;-72
2021/04/01 15:30:57;;;;;;;17.65;14.20;;;;;;;23.69;30.49;99548.75;2385825;81;25326;-74
2021/04/01 15:34:18;;;;;;;15.38;13.18;;;;;;;23.60;30.41;99542.02;2410674;81;25785;-79
2021/04/01 15:37:46;;;;;;;21.23;12.43;;;;;;;23.53;30.34;99544.08;2413121;81;25715;-74
2021/04/01 15:41:15;;;;;;;20.48;13.60;;;;;;;23.48;30.54;99549.19;2414432;81;25845;-77
2021/04/01 15:44:40;;;;;;;32.17;15.83;;;;;;;23.41;30.73;99543.27;2416118;81;25797;-77
2021/04/01 15:48:16;;;;;;;;;;;;;;;;;;;;;
2021/04/01 15:52:38;;;;;;;24.23;16.45;;;;;;;23.24;30.79;99554.61;2592146;75;25793;-78
2021/04/01 15:56:16;;;;;;;;;;;;;;;;;;;;;
2021/04/01 15:59:47;;;;;;;27.63;17.90;;;;;;;23.01;31.20;99555.55;2594740;74;29606;-79
2021/04/01 16:03:09;;;;;;;21.90;16.30;;;;;;;23.08;31.10;99567.69;2471909;78;25185;-76
2021/04/01 16:06:34;;;;;;;32.45;16.67;;;;;;;22.99;31.01;99565.40;2456940;80;25664;-79
2021/04/01 16:10:03;;;;;;;28.70;18.55;;;;;;;22.80;31.19;99566.55;2487462;78;25838;-76
2021/04/01 16:13:32;;;;;;;37.40;18.90;;;;;;;22.63;31.16;99569.01;2489449;78;25562;-74
2021/04/01 16:17:04;;;;;;;28.55;19.17;;;;;;;22.49;31.10;99564.23;2452402;79;25741;-77
2021/04/01 16:20:26;;;;;;;26.85;16.40;;;;;;;22.35;30.93;99562.56;2473613;79;25786;-76
2021/04/01 16:23:55;;;;;;;23.15;13.03;;;;;;;22.29;31.05;99576.94;2440718;81;25683;-75
2021/04/01 16:27:20;;;;;;;27.75;14.30;;;;;;;22.18;30.87;99574.28;2474480;78;25712;-80
2021/04/01 16:30:46;;;;;;;20.75;12.28;;;;;;;22.09;30.93;99582.94;2488188;79;26295;-80
2021/04/01 16:34:10;;;;;;;19.60;10.40;;;;;;;21.99;30.99;99588.17;2255137;82;25977;-77
2021/04/01 16:37:40;;;;;;;14.78;9.28;;;;;;;21.86;30.96;99583.76;2302147;84;25557;-74
2021/04/01 16:41:08;;;;;;;19.35;8.23;;;;;;;21.77;31.01;99585.44;2335045;81;25804;-74
2021/04/01 16:44:48;;;;;;;20.17;7.95;;;;;;;21.74;31.39;99588.19;2553646;77;30825;-72
2021/04/01 16:48:20;;;;;;;15.15;6.72;;;;;;;21.56;31.34;99596.30;2514786;78;25791;-73
2021/04/01 16:52:02;;;;;;;9.48;5.70;;;;;;;21.37;31.49;99604.02;2421543;81;26322;-82
2021/04/01 16:55:36;;;;;;;10.28;5.80;;;;;;;21.26;31.64;99611.87;2465053;80;25715;-77
2021/04/01 16:59:20;;;;;;;13.53;5.92;;;;;;;21.17;31.90;99619.22;2420978;80;25355;-78
2021/04/01 17:06:36;;;;;;;10.08;4.80;;;;;;;20.92;32.05;99620.89;2342186;83;25827;-71
2021/04/01 17:10:16;;;;;;;10.63;4.33;;;;;;;20.85;32.31;99622.86;2435963;79;30884;-77
2021/04/01 17:13:42;;;;;;;11.03;4.67;;;;;;;20.70;32.59;99629.50;2384850;82;25923;-70
2021/04/01 17:17:04;;;;;;;13.32;4.60;;;;;;;20.61;32.40;99632.88;2384669;83;25712;-70
2021/04/01 17:20:27;;;;;;;7.85;3.80;;;;;;;20.46;32.54;99630.19;2384661;82;25736;-74
2021/04/01 17:23:53;;;;;;;6.22;4.25;;;;;;;20.33;32.78;99626.16;2379850;83;25772;-71
2021/04/01 17:27:16;;;;;;;12.60;4.62;;;;;;;20.22;33.08;99635.27;2384636;82;25272;-75
2021/04/01 17:30:39;;;;;;;9.23;5.65;;;;;;;20.18;33.18;99630.08;2384507;82;25870;-76
2021/04/01 17:34:05;;;;;;;15.08;4.17;;;;;;;20.09;33.15;99640.48;2357854;83;25324;-72
2021/04/01 17:37:29;;;;;;;9.03;4.87;;;;;;;20.00;33.37;99647.34;2382328;82;25651;-76
2021/04/01 17:40:52;;;;;;;9.85;5.50;;;;;;;19.95;33.65;99654.09;2400857;81;26980;-72
2021/04/01 17:44:19;;;;;;;11.10;6.10;;;;;;;19.85;33.59;99660.52;2392552;81;25825;-78
2021/04/01 17:47:41;;;;;;;10.03;4.55;;;;;;;19.74;33.67;99659.91;2255234;87;25779;-74
2021/04/01 17:51:04;;;;;;;9.78;4.70;;;;;;;19.84;34.92;99666.70;2234978;84;25740;-80
2021/04/01 17:54:37;;;;;;;6.78;3.95;;;;;;;20.10;35.17;99666.48;2234133;87;25725;-77
2021/04/01 17:58:00;;;;;;;5.92;4.03;;;;;;;20.32;35.62;99674.70;2256514;87;25633;-82
2021/04/01 18:01:30;;;;;;;6.12;3.58;;;;;;;20.50;36.06;99679.06;2265244;86;25831;-79
2021/04/01 18:39:23;;;;;;;11.28;9.10;;;;;;;21.05;37.42;99705.72;2380294;81;25760;-80
2021/04/01 18:43:19;;;;;;;12.43;8.95;;;;;;;20.87;37.29;99708.93;2268123;86;25891;-81
2021/04/01 18:51:06;;;;;;;11.38;8.83;;;;;;;20.57;37.44;99725.24;2484189;79;25718;-76
2021/04/01 18:55:16;;;;;;;13.48;9.65;;;;;;;20.46;37.58;99730.80;2479009;78;25935;-80
2021/04/01 19:02:56;;;;;;;12.45;8.65;;;;;;;20.28;37.98;99748.02;2311972;84;25721;-79
2021/04/01 19:06:22;;;;;;;10.32;9.10;;;;;;;20.20;38.00;99752.66;2294425;85;25309;-80
2021/04/01 19:14:51;;;;;;;11.03;9.25;;;;;;;20.00;38.70;99750.52;2266834;87;25687;-85
2021/04/01 19:21:39;;;;;;;10.30;9.13;;;;;;;19.89;39.42;99759.19;2511821;78;25773;-78
2021/04/01 19:25:17;;;;;;;17.05;10.08;;;;;;;19.83;39.62;99768.59;2510913;77;25701;-80
2021/04/01 19:29:09;;;;;;;;;;;;;;;;;;;;;
2021/04/01 19:32:33;;;;;;;13.55;9.85;;;;;;;19.74;39.67;99774.95;2313058;85;25751;-83
2021/04/01 19:35:56;;;;;;;14.85;9.60;;;;;;;19.67;39.93;99778.19;2317162;84;26304;-80
2021/04/01 19:39:24;;;;;;;12.55;9.33;;;;;;;19.63;40.30;99779.59;2316618;84;25500;-75
2021/04/01 19:47:22;;;;;;;;;;;;;;;;;;;;;
2021/04/01 19:51:55;;;;;;;;;;;;;;;;;;;;;
2021/04/01 20:00:36;;;;;;;12.88;9.90;;;;;;;19.31;40.71;99793.09;2427568;81;25676;-83
2021/04/01 20:04:46;;;;;;;11.30;9.73;;;;;;;19.24;40.88;99802.06;2513795;78;31298;-76
2021/04/01 20:08:16;;;;;;;14.28;10.43;;;;;;;19.07;41.08;99804.59;2468575;80;25651;-77
2021/04/01 20:11:41;;;;;;;13.62;9.43;;;;;;;18.96;41.24;99805.70;2422914;80;25839;-80
2021/04/01 20:15:08;;;;;;;10.18;9.05;;;;;;;18.83;41.39;99816.52;2449384;80;25660;-78
2021/04/01 20:18:35;;;;;;;9.80;8.58;;;;;;;18.75;41.39;99828.11;2416443;81;25814;-75
2021/04/01 20:21:59;;;;;;;11.88;6.83;;;;;;;18.67;41.60;99835.29;2403865;81;26267;-76
2021/04/01 20:25:26;;;;;;;6.33;5.75;;;;;;;18.58;41.67;99833.67;2429267;81;25726;-77
2021/04/01 20:28:58;;;;;;;6.08;5.12;;;;;;;18.52;41.61;99825.85;2434845;80;25668;-82
2021/04/01 20:32:23;;;;;;;4.05;3.67;;;;;;;18.43;41.68;99837.46;2455494;79;25683;-85
2021/04/01 20:36:08;;;;;;;5.58;3.52;;;;;;;18.38;41.34;99835.33;2446436;79;25422;-86
2021/04/01 20:39:57;;;;;;;3.65;3.35;;;;;;;18.27;41.27;99833.33;2314838;83;25763;-74
2021/04/01 20:43:25;;;;;;;5.20;3.85;;;;;;;18.20;41.22;99836.52;2282662;85;25755;-80
2021/04/01 20:46:49;;;;;;;4.05;3.17;;;;;;;18.25;42.28;99843.89;2307225;85;25674;-79
2021/04/01 20:50:19;;;;;;;4.53;3.75;;;;;;;18.26;42.39;99832.47;2307476;85;25732;-81
2021/04/01 20:53:46;;;;;;;6.80;3.45;;;;;;;18.38;42.83;99839.30;2308380;85;26381;-76
2021/04/01 20:57:14;;;;;;;3.37;2.90;;;;;;;18.60;43.04;99864.88;2308338;85;25757;-75
2021/04/01 21:00:51;;;;;;;4.20;2.20;;;;;;;18.66;43.05;99868.71;2308789;85;25724;-75
2021/04/01 21:04:17;;;;;;;2.52;2.12;;;;;;;18.72;43.22;99874.38;2293871;85;25724;-73
2021/04/01 21:07:42;;;;;;;2.12;1.70;;;;;;;18.75;43.34;99884.44;2304913;85;25788;-72
2021/04/01 21:11:25;;;;;;;2.85;1.80;;;;;;;18.79;43.27;99878.64;2553788;77;30919;-75
2021/04/01 21:15:00;;;;;;;1.82;1.47;;;;;;;18.75;43.41;99885.75;2515376;78;25610;-81
2021/04/01 21:18:32;;;;;;;2.72;1.30;;;;;;;18.77;43.31;99898.95;2515282;78;25861;-79
2021/04/01 21:22:07;;;;;;;8.65;1.90;;;;;;;18.77;43.47;99902.91;2515055;78;25674;-78
2021/04/01 21:25:36;;;;;;;1.50;1.40;;;;;;;18.75;43.25;99904.23;2515127;78;25669;-79
2021/04/01 21:29:03;;;;;;;2.75;1.32;;;;;;;18.68;42.77;99899.94;2515353;78;25678;-75
2021/04/01 21:32:27;;;;;;;1.65;1.42;;;;;;;18.51;42.36;99908.14;2515135;78;25672;-77
2021/04/01 21:35:58;;;;;;;1.75;1.50;;;;;;;18.06;41.65;99892.14;2515190;78;25681;-75
2021/04/01 21:39:25;;;;;;;1.80;1.20;;;;;;;18.06;41.65;99892.14;2477411;78;25719;-80
2021/04/01 21:42:46;;;;;;;1.12;0.95;;;;;;;18.05;41.20;99924.66;2490009;79;25716;-79
2021/04/01 21:46:13;;;;;;;15.18;5.87;;;;;;;17.92;40.89;99921.34;2490466;78;25588;-80
2021/04/01 21:50:01;;;;;;;4.47;2.33;;;;;;;17.82;40.94;99921.47;2471482;78;25330;-76
2021/04/01 21:53:40;;;;;;;5.55;2.42;;;;;;;17.57;40.17;99934.06;2490517;79;25577;-84
2021/04/01 21:57:09;;;;;;;6.37;3.58;;;;;;;17.57;40.17;99934.06;2489884;79;25712;-78
2021/04/01 22:01:07;;;;;;;4.95;2.25;;;;;;;17.34;40.18;99907.98;2490440;78;25713;-80
2021/04/01 22:09:35;;;;;;;2.95;1.77;;;;;;;17.42;40.06;99933.37;2335137;84;25627;-74
2021/04/01 22:13:14;;;;;;;3.47;1.55;;;;;;;17.37;40.15;99935.61;2345651;83;25856;-79
2021/04/01 22:16:44;;;;;;;2.50;1.30;;;;;;;17.36;40.19;99944.42;2345916;83;25713;-77
2021/04/01 22:20:16;;;;;;;1.90;1.37;;;;;;;17.33;40.22;99946.63;2306525;84;25797;-79
2021/04/01 22:56:37;;;;;;;1.15;0.95;;;;;;;16.81;40.23;99947.58;2307596;82;25562;-80
2021/04/01 23:11:44;;;;;;;0.50;0.50;;;;;;;16.63;40.12;99967.88;2492645;78;30832;-79
2021/04/01 23:19:45;;;;;;;0.98;0.60;;;;;;;16.50;40.16;99957.91;2238261;87;25892;-78
2021/04/01 23:34:42;;;;;;;2.08;0.80;;;;;;;16.37;40.21;99997.02;2430806;80;30707;-74
2021/04/01 23:38:49;;;;;;;;;;;;;;;;;;;;;
2021/04/01 23:47:16;;;;;;;;;;;;;;;;;;;;;
2021/04/01 23:50:50;;;;;;;;;;;;;;;;;;;;;
2021/04/01 23:55:34;;;;;;;0.95;0.57;;;;;;;16.22;40.30;99999.73;2556146;75;31132;-79
2021/04/01 23:59:02;;;;;;;0.80;0.70;;;;;;;16.14;40.28;100005.03;2577052;75;25743;-75
